sensor_id;sensor_type;location;lat;lon;timestamp;temperature;humidity
16863;DHT22;52193;48.216;-1.698;2023-01-26T00:02:22;9.90;99.90
16863;DHT22;52193;48.216;-1.698;2023-01-26T00:04:49;9.90;99.90
16863;DHT22;52193;48.216;-1.698;2023-01-26T00:07:18;9.80;99.90
16863;DHT22;52193;48.216;-1.698;2023-01-26T00:09:44;9.70;99.90
16863;DHT22;52193;48.216;-1.698;2023-01-26T00:12:11;9.70;99.90
16863;DHT22;52193;48.216;-1.698;2023-01-26T00:14:38;9.70;99.90
16863;DHT22;52193;48.216;-1.698;2023-01-26T00:17:19;9.70;99.90
16863;DHT22;52193;48.216;-1.698;2023-01-26T00:19:55;9.60;99.90
16863;DHT22;52193;48.216;-1.698;2023-01-26T00:22:25;9.60;99.90
16863;DHT22;52193;48.216;-1.698;2023-01-26T00:24:52;9.60;99.90
16863;DHT22;52193;48.216;-1.698;2023-01-26T00:27:19;9.60;99.90
16863;DHT22;52193;48.216;-1.698;2023-01-26T00:29:46;9.60;99.90
16863;DHT22;52193;48.216;-1.698;2023-01-26T00:32:13;9.60;99.90
16863;DHT22;52193;48.216;-1.698;2023-01-26T00:34:40;9.60;99.90
16863;DHT22;52193;48.216;-1.698;2023-01-26T00:37:07;9.50;99.90
16863;DHT22;52193;48.216;-1.698;2023-01-26T00:39:35;9.50;99.90
16863;DHT22;52193;48.216;-1.698;2023-01-26T00:42:02;9.60;99.90
16863;DHT22;52193;48.216;-1.698;2023-01-26T00:44:35;9.70;99.90
16863;DHT22;52193;48.216;-1.698;2023-01-26T00:47:02;9.60;99.90
16863;DHT22;52193;48.216;-1.698;2023-01-26T00:49:28;9.60;99.90
16863;DHT22;52193;48.216;-1.698;2023-01-26T00:51:55;9.70;99.90
16863;DHT22;52193;48.216;-1.698;2023-01-26T00:54:22;9.60;99.90
16863;DHT22;52193;48.216;-1.698;2023-01-26T00:56:51;9.50;99.90
16863;DHT22;52193;48.216;-1.698;2023-01-26T00:59:18;9.60;99.90
16863;DHT22;52193;48.216;-1.698;2023-01-26T01:01:44;9.60;99.90
16863;DHT22;52193;48.216;-1.698;2023-01-26T01:04:11;9.60;99.90
16863;DHT22;52193;48.216;-1.698;2023-01-26T01:06:38;9.70;99.90
16863;DHT22;52193;48.216;-1.698;2023-01-26T01:09:05;9.70;99.90
16863;DHT22;52193;48.216;-1.698;2023-01-26T01:11:32;9.60;99.90
16863;DHT22;52193;48.216;-1.698;2023-01-26T01:14:01;9.60;99.90
16863;DHT22;52193;48.216;-1.698;2023-01-26T01:16:28;9.70;99.90
16863;DHT22;52193;48.216;-1.698;2023-01-26T01:18:55;9.80;99.90
16863;DHT22;52193;48.216;-1.698;2023-01-26T01:21:23;9.80;99.90
16863;DHT22;52193;48.216;-1.698;2023-01-26T01:23:50;9.80;99.90
16863;DHT22;52193;48.216;-1.698;2023-01-26T01:26:17;9.80;99.90
16863;DHT22;52193;48.216;-1.698;2023-01-26T01:28:44;9.90;99.90
16863;DHT22;52193;48.216;-1.698;2023-01-26T01:31:14;9.80;99.90
16863;DHT22;52193;48.216;-1.698;2023-01-26T01:33:41;9.90;99.90
16863;DHT22;52193;48.216;-1.698;2023-01-26T01:36:10;9.90;99.90
16863;DHT22;52193;48.216;-1.698;2023-01-26T01:38:38;9.90;99.90
16863;DHT22;52193;48.216;-1.698;2023-01-26T01:41:05;10.00;99.90
16863;DHT22;52193;48.216;-1.698;2023-01-26T01:43:32;10.00;99.90
16863;DHT22;52193;48.216;-1.698;2023-01-26T01:46:00;10.10;99.90
16863;DHT22;52193;48.216;-1.698;2023-01-26T01:48:35;10.10;99.90
16863;DHT22;52193;48.216;-1.698;2023-01-26T01:51:06;10.10;99.90
16863;DHT22;52193;48.216;-1.698;2023-01-26T01:53:36;10.10;99.90
16863;DHT22;52193;48.216;-1.698;2023-01-26T01:56:06;10.10;99.90
16863;DHT22;52193;48.216;-1.698;2023-01-26T01:58:39;10.10;99.90
16863;DHT22;52193;48.216;-1.698;2023-01-26T02:01:07;10.10;99.90
16863;DHT22;52193;48.216;-1.698;2023-01-26T02:03:36;10.10;99.90
16863;DHT22;52193;48.216;-1.698;2023-01-26T02:06:07;10.10;99.90
16863;DHT22;52193;48.216;-1.698;2023-01-26T02:08:37;10.10;99.90
16863;DHT22;52193;48.216;-1.698;2023-01-26T02:11:06;10.10;99.90
16863;DHT22;52193;48.216;-1.698;2023-01-26T02:13:35;10.00;99.90
16863;DHT22;52193;48.216;-1.698;2023-01-26T02:16:02;10.00;99.90
16863;DHT22;52193;48.216;-1.698;2023-01-26T02:18:29;10.10;99.90
16863;DHT22;52193;48.216;-1.698;2023-01-26T02:21:00;10.10;99.90
16863;DHT22;52193;48.216;-1.698;2023-01-26T02:23:39;10.10;99.90
16863;DHT22;52193;48.216;-1.698;2023-01-26T02:26:12;10.10;99.90
16863;DHT22;52193;48.216;-1.698;2023-01-26T02:28:40;10.10;99.90
16863;DHT22;52193;48.216;-1.698;2023-01-26T02:31:09;10.10;99.90
16863;DHT22;52193;48.216;-1.698;2023-01-26T02:33:36;10.10;99.90
16863;DHT22;52193;48.216;-1.698;2023-01-26T02:36:05;10.10;99.90
16863;DHT22;52193;48.216;-1.698;2023-01-26T02:38:38;10.10;99.90
16863;DHT22;52193;48.216;-1.698;2023-01-26T02:41:07;10.10;99.90
16863;DHT22;52193;48.216;-1.698;2023-01-26T02:43:36;10.10;99.90
16863;DHT22;52193;48.216;-1.698;2023-01-26T02:46:02;10.00;99.90
16863;DHT22;52193;48.216;-1.698;2023-01-26T02:48:29;10.00;99.90
16863;DHT22;52193;48.216;-1.698;2023-01-26T02:51:13;10.10;99.90
16863;DHT22;52193;48.216;-1.698;2023-01-26T02:53:40;10.00;99.90
16863;DHT22;52193;48.216;-1.698;2023-01-26T02:56:07;10.10;99.90
16863;DHT22;52193;48.216;-1.698;2023-01-26T02:58:33;10.10;99.90
16863;DHT22;52193;48.216;-1.698;2023-01-26T03:01:02;10.20;99.90
16863;DHT22;52193;48.216;-1.698;2023-01-26T03:03:29;10.20;99.90
16863;DHT22;52193;48.216;-1.698;2023-01-26T03:06:08;10.20;99.90
16863;DHT22;52193;48.216;-1.698;2023-01-26T03:08:35;10.20;99.90
16863;DHT22;52193;48.216;-1.698;2023-01-26T03:11:03;10.10;99.90
16863;DHT22;52193;48.216;-1.698;2023-01-26T03:13:30;10.10;99.90
16863;DHT22;52193;48.216;-1.698;2023-01-26T03:15:57;10.20;99.90
16863;DHT22;52193;48.216;-1.698;2023-01-26T03:18:33;10.10;99.90
16863;DHT22;52193;48.216;-1.698;2023-01-26T03:21:18;10.10;99.90
16863;DHT22;52193;48.216;-1.698;2023-01-26T03:24:03;10.00;99.90
16863;DHT22;52193;48.216;-1.698;2023-01-26T03:26:47;10.00;99.90
16863;DHT22;52193;48.216;-1.698;2023-01-26T03:29:32;10.10;99.90
16863;DHT22;52193;48.216;-1.698;2023-01-26T03:31:59;10.10;99.90
16863;DHT22;52193;48.216;-1.698;2023-01-26T03:34:28;10.10;99.90
16863;DHT22;52193;48.216;-1.698;2023-01-26T03:36:55;10.20;99.90
16863;DHT22;52193;48.216;-1.698;2023-01-26T03:39:22;10.20;99.90
16863;DHT22;52193;48.216;-1.698;2023-01-26T03:42:18;10.30;99.90
16863;DHT22;52193;48.216;-1.698;2023-01-26T03:45:03;10.30;99.90
16863;DHT22;52193;48.216;-1.698;2023-01-26T03:47:47;10.30;99.90
16863;DHT22;52193;48.216;-1.698;2023-01-26T03:50:33;10.20;99.90
16863;DHT22;52193;48.216;-1.698;2023-01-26T03:53:19;10.30;99.90
16863;DHT22;52193;48.216;-1.698;2023-01-26T03:56:04;10.30;99.90
16863;DHT22;52193;48.216;-1.698;2023-01-26T03:58:43;10.30;99.90
16863;DHT22;52193;48.216;-1.698;2023-01-26T04:01:10;10.30;99.90
16863;DHT22;52193;48.216;-1.698;2023-01-26T04:03:45;10.40;99.90
16863;DHT22;52193;48.216;-1.698;2023-01-26T04:06:31;10.50;99.90
16863;DHT22;52193;48.216;-1.698;2023-01-26T04:09:16;10.50;99.90
16863;DHT22;52193;48.216;-1.698;2023-01-26T04:11:43;10.60;99.90
16863;DHT22;52193;48.216;-1.698;2023-01-26T04:14:11;10.60;99.90
16863;DHT22;52193;48.216;-1.698;2023-01-26T04:16:56;10.60;99.90
16863;DHT22;52193;48.216;-1.698;2023-01-26T04:19:40;10.70;99.90
16863;DHT22;52193;48.216;-1.698;2023-01-26T04:22:26;10.60;99.90
16863;DHT22;52193;48.216;-1.698;2023-01-26T04:24:53;10.70;99.90
16863;DHT22;52193;48.216;-1.698;2023-01-26T04:27:21;10.70;99.90
16863;DHT22;52193;48.216;-1.698;2023-01-26T04:29:48;10.70;99.90
16863;DHT22;52193;48.216;-1.698;2023-01-26T04:32:15;10.80;99.90
16863;DHT22;52193;48.216;-1.698;2023-01-26T04:34:42;10.80;99.90
16863;DHT22;52193;48.216;-1.698;2023-01-26T04:37:09;10.80;99.90
16863;DHT22;52193;48.216;-1.698;2023-01-26T04:39:37;10.80;99.90
16863;DHT22;52193;48.216;-1.698;2023-01-26T04:42:04;10.90;99.90
16863;DHT22;52193;48.216;-1.698;2023-01-26T04:44:31;10.90;99.90
16863;DHT22;52193;48.216;-1.698;2023-01-26T04:46:58;11.00;99.90
16863;DHT22;52193;48.216;-1.698;2023-01-26T04:49:25;10.90;99.90
16863;DHT22;52193;48.216;-1.698;2023-01-26T04:51:52;11.00;99.90
16863;DHT22;52193;48.216;-1.698;2023-01-26T04:54:19;11.00;99.90
16863;DHT22;52193;48.216;-1.698;2023-01-26T04:56:48;11.00;99.90
16863;DHT22;52193;48.216;-1.698;2023-01-26T04:59:16;11.00;99.90
16863;DHT22;52193;48.216;-1.698;2023-01-26T05:01:43;11.10;99.90
16863;DHT22;52193;48.216;-1.698;2023-01-26T05:04:11;11.10;99.90
16863;DHT22;52193;48.216;-1.698;2023-01-26T05:06:38;11.10;99.90
16863;DHT22;52193;48.216;-1.698;2023-01-26T05:09:06;11.10;99.90
16863;DHT22;52193;48.216;-1.698;2023-01-26T05:11:34;11.20;99.90
16863;DHT22;52193;48.216;-1.698;2023-01-26T05:14:02;11.20;99.90
16863;DHT22;52193;48.216;-1.698;2023-01-26T05:16:29;11.20;99.90
16863;DHT22;52193;48.216;-1.698;2023-01-26T05:18:56;11.20;99.90
16863;DHT22;52193;48.216;-1.698;2023-01-26T05:21:23;11.20;99.90
16863;DHT22;52193;48.216;-1.698;2023-01-26T05:23:52;11.20;99.90
16863;DHT22;52193;48.216;-1.698;2023-01-26T05:26:19;11.20;99.90
16863;DHT22;52193;48.216;-1.698;2023-01-26T05:28:46;11.20;99.90
16863;DHT22;52193;48.216;-1.698;2023-01-26T05:31:14;11.30;99.90
16863;DHT22;52193;48.216;-1.698;2023-01-26T05:33:41;11.20;99.90
16863;DHT22;52193;48.216;-1.698;2023-01-26T05:36:08;11.20;99.90
16863;DHT22;52193;48.216;-1.698;2023-01-26T05:38:35;11.20;99.90
16863;DHT22;52193;48.216;-1.698;2023-01-26T05:41:02;11.30;99.90
16863;DHT22;52193;48.216;-1.698;2023-01-26T05:43:29;11.30;99.90
16863;DHT22;52193;48.216;-1.698;2023-01-26T05:45:56;11.30;99.90
16863;DHT22;52193;48.216;-1.698;2023-01-26T05:48:24;11.30;99.90
16863;DHT22;52193;48.216;-1.698;2023-01-26T05:50:53;11.30;99.90
16863;DHT22;52193;48.216;-1.698;2023-01-26T05:53:20;11.40;99.90
16863;DHT22;52193;48.216;-1.698;2023-01-26T05:55:47;11.30;99.90
16863;DHT22;52193;48.216;-1.698;2023-01-26T05:58:14;11.40;99.90
16863;DHT22;52193;48.216;-1.698;2023-01-26T06:00:41;11.40;99.90
16863;DHT22;52193;48.216;-1.698;2023-01-26T06:03:08;11.40;99.90
16863;DHT22;52193;48.216;-1.698;2023-01-26T06:05:36;11.40;99.90
16863;DHT22;52193;48.216;-1.698;2023-01-26T06:08:04;11.40;99.90
16863;DHT22;52193;48.216;-1.698;2023-01-26T06:10:31;11.40;99.90
16863;DHT22;52193;48.216;-1.698;2023-01-26T06:12:59;11.40;99.90
16863;DHT22;52193;48.216;-1.698;2023-01-26T06:15:26;11.40;99.90
16863;DHT22;52193;48.216;-1.698;2023-01-26T06:17:53;11.40;99.90
16863;DHT22;52193;48.216;-1.698;2023-01-26T06:20:20;11.40;99.90
16863;DHT22;52193;48.216;-1.698;2023-01-26T06:22:48;11.40;99.90
16863;DHT22;52193;48.216;-1.698;2023-01-26T06:25:15;11.40;99.90
16863;DHT22;52193;48.216;-1.698;2023-01-26T06:27:42;11.40;99.90
16863;DHT22;52193;48.216;-1.698;2023-01-26T06:30:10;11.50;99.90
16863;DHT22;52193;48.216;-1.698;2023-01-26T06:32:37;11.40;99.90
16863;DHT22;52193;48.216;-1.698;2023-01-26T06:35:04;11.50;99.90
16863;DHT22;52193;48.216;-1.698;2023-01-26T06:37:33;11.50;99.90
16863;DHT22;52193;48.216;-1.698;2023-01-26T06:40:02;11.50;99.90
16863;DHT22;52193;48.216;-1.698;2023-01-26T06:42:29;11.50;99.90
16863;DHT22;52193;48.216;-1.698;2023-01-26T06:44:55;11.50;99.90
16863;DHT22;52193;48.216;-1.698;2023-01-26T06:47:23;11.50;99.90
16863;DHT22;52193;48.216;-1.698;2023-01-26T06:49:50;11.40;99.90
16863;DHT22;52193;48.216;-1.698;2023-01-26T06:52:35;11.40;99.90
16863;DHT22;52193;48.216;-1.698;2023-01-26T06:55:04;11.50;99.90
16863;DHT22;52193;48.216;-1.698;2023-01-26T06:57:31;11.50;99.90
16863;DHT22;52193;48.216;-1.698;2023-01-26T06:59:58;11.40;99.90
16863;DHT22;52193;48.216;-1.698;2023-01-26T07:02:25;11.50;99.90
16863;DHT22;52193;48.216;-1.698;2023-01-26T07:04:52;11.50;99.90
16863;DHT22;52193;48.216;-1.698;2023-01-26T07:07:19;11.50;99.90
16863;DHT22;52193;48.216;-1.698;2023-01-26T07:09:46;11.50;99.90
16863;DHT22;52193;48.216;-1.698;2023-01-26T07:12:14;11.50;99.90
16863;DHT22;52193;48.216;-1.698;2023-01-26T07:14:41;11.50;99.90
16863;DHT22;52193;48.216;-1.698;2023-01-26T07:17:08;11.40;99.90
16863;DHT22;52193;48.216;-1.698;2023-01-26T07:19:35;11.40;99.90
16863;DHT22;52193;48.216;-1.698;2023-01-26T07:22:02;11.40;99.90
16863;DHT22;52193;48.216;-1.698;2023-01-26T07:24:29;11.50;99.90
16863;DHT22;52193;48.216;-1.698;2023-01-26T07:26:56;11.50;99.90
16863;DHT22;52193;48.216;-1.698;2023-01-26T07:29:24;11.50;99.90
16863;DHT22;52193;48.216;-1.698;2023-01-26T07:31:51;11.50;99.90
16863;DHT22;52193;48.216;-1.698;2023-01-26T07:34:18;11.40;99.90
16863;DHT22;52193;48.216;-1.698;2023-01-26T07:36:45;11.30;99.90
16863;DHT22;52193;48.216;-1.698;2023-01-26T07:39:12;11.30;99.90
16863;DHT22;52193;48.216;-1.698;2023-01-26T07:41:39;11.40;99.90
16863;DHT22;52193;48.216;-1.698;2023-01-26T07:44:08;11.40;99.90
16863;DHT22;52193;48.216;-1.698;2023-01-26T07:46:37;11.40;99.90
16863;DHT22;52193;48.216;-1.698;2023-01-26T07:49:04;11.40;99.90
16863;DHT22;52193;48.216;-1.698;2023-01-26T07:51:31;11.40;99.90
16863;DHT22;52193;48.216;-1.698;2023-01-26T07:53:58;11.40;99.90
16863;DHT22;52193;48.216;-1.698;2023-01-26T07:56:25;11.40;99.90
16863;DHT22;52193;48.216;-1.698;2023-01-26T07:58:53;11.40;99.90
16863;DHT22;52193;48.216;-1.698;2023-01-26T08:01:21;11.40;99.90
16863;DHT22;52193;48.216;-1.698;2023-01-26T08:03:51;11.40;99.90
16863;DHT22;52193;48.216;-1.698;2023-01-26T08:06:18;11.40;99.90
16863;DHT22;52193;48.216;-1.698;2023-01-26T08:08:46;11.50;99.90
16863;DHT22;52193;48.216;-1.698;2023-01-26T08:11:16;11.50;99.90
16863;DHT22;52193;48.216;-1.698;2023-01-26T08:13:43;11.50;99.90
16863;DHT22;52193;48.216;-1.698;2023-01-26T08:16:10;11.50;99.90
16863;DHT22;52193;48.216;-1.698;2023-01-26T08:18:38;11.50;99.90
16863;DHT22;52193;48.216;-1.698;2023-01-26T08:21:07;11.50;99.90
16863;DHT22;52193;48.216;-1.698;2023-01-26T08:23:34;11.50;99.90
16863;DHT22;52193;48.216;-1.698;2023-01-26T08:26:01;11.60;99.90
16863;DHT22;52193;48.216;-1.698;2023-01-26T08:28:29;11.50;99.90
16863;DHT22;52193;48.216;-1.698;2023-01-26T08:30:58;11.50;99.90
16863;DHT22;52193;48.216;-1.698;2023-01-26T08:33:30;11.50;99.90
16863;DHT22;52193;48.216;-1.698;2023-01-26T08:36:00;11.60;99.90
16863;DHT22;52193;48.216;-1.698;2023-01-26T08:38:30;11.60;99.90
16863;DHT22;52193;48.216;-1.698;2023-01-26T08:40:57;11.70;99.90
16863;DHT22;52193;48.216;-1.698;2023-01-26T08:43:24;11.70;99.90
16863;DHT22;52193;48.216;-1.698;2023-01-26T08:45:51;11.70;99.90
16863;DHT22;52193;48.216;-1.698;2023-01-26T08:48:18;11.70;99.90
16863;DHT22;52193;48.216;-1.698;2023-01-26T08:50:45;11.70;99.90
16863;DHT22;52193;48.216;-1.698;2023-01-26T08:53:13;11.70;99.90
16863;DHT22;52193;48.216;-1.698;2023-01-26T08:55:41;11.70;99.90
16863;DHT22;52193;48.216;-1.698;2023-01-26T08:58:08;11.70;99.90
16863;DHT22;52193;48.216;-1.698;2023-01-26T09:00:35;11.70;99.90
16863;DHT22;52193;48.216;-1.698;2023-01-26T09:03:03;11.70;99.90
16863;DHT22;52193;48.216;-1.698;2023-01-26T09:05:33;11.70;99.90
16863;DHT22;52193;48.216;-1.698;2023-01-26T09:08:00;11.70;99.90
16863;DHT22;52193;48.216;-1.698;2023-01-26T09:10:27;11.80;99.90
16863;DHT22;52193;48.216;-1.698;2023-01-26T09:12:55;11.70;99.90
16863;DHT22;52193;48.216;-1.698;2023-01-26T09:15:23;11.70;99.90
16863;DHT22;52193;48.216;-1.698;2023-01-26T09:17:50;11.80;99.90
16863;DHT22;52193;48.216;-1.698;2023-01-26T09:20:18;11.80;99.90
16863;DHT22;52193;48.216;-1.698;2023-01-26T09:22:45;11.80;99.90
16863;DHT22;52193;48.216;-1.698;2023-01-26T09:25:13;11.80;99.90
16863;DHT22;52193;48.216;-1.698;2023-01-26T09:27:40;11.80;99.90
16863;DHT22;52193;48.216;-1.698;2023-01-26T09:30:11;11.80;99.90
16863;DHT22;52193;48.216;-1.698;2023-01-26T09:32:38;11.80;99.90
16863;DHT22;52193;48.216;-1.698;2023-01-26T09:35:05;11.90;99.90
16863;DHT22;52193;48.216;-1.698;2023-01-26T09:37:36;11.90;99.90
16863;DHT22;52193;48.216;-1.698;2023-01-26T09:40:04;11.90;99.90
16863;DHT22;52193;48.216;-1.698;2023-01-26T09:42:45;11.90;99.90
16863;DHT22;52193;48.216;-1.698;2023-01-26T09:45:23;11.90;99.90
16863;DHT22;52193;48.216;-1.698;2023-01-26T09:48:07;11.90;99.90
16863;DHT22;52193;48.216;-1.698;2023-01-26T09:50:39;12.00;99.90
16863;DHT22;52193;48.216;-1.698;2023-01-26T09:53:13;12.00;99.90
16863;DHT22;52193;48.216;-1.698;2023-01-26T09:55:41;12.00;99.90
16863;DHT22;52193;48.216;-1.698;2023-01-26T09:58:14;12.10;99.90
16863;DHT22;52193;48.216;-1.698;2023-01-26T10:00:46;12.10;99.90
16863;DHT22;52193;48.216;-1.698;2023-01-26T10:03:22;12.20;99.90
16863;DHT22;52193;48.216;-1.698;2023-01-26T10:05:56;12.20;99.90
16863;DHT22;52193;48.216;-1.698;2023-01-26T10:08:25;12.20;99.90
16863;DHT22;52193;48.216;-1.698;2023-01-26T10:10:53;12.20;99.90
16863;DHT22;52193;48.216;-1.698;2023-01-26T10:13:21;12.20;99.90
16863;DHT22;52193;48.216;-1.698;2023-01-26T10:15:53;12.30;99.90
16863;DHT22;52193;48.216;-1.698;2023-01-26T10:18:26;12.30;99.90
16863;DHT22;52193;48.216;-1.698;2023-01-26T10:20:55;12.40;99.90
16863;DHT22;52193;48.216;-1.698;2023-01-26T10:23:27;12.40;99.90
16863;DHT22;52193;48.216;-1.698;2023-01-26T10:26:01;12.40;99.90
16863;DHT22;52193;48.216;-1.698;2023-01-26T10:28:32;12.50;99.90
16863;DHT22;52193;48.216;-1.698;2023-01-26T10:31:01;12.50;99.90
16863;DHT22;52193;48.216;-1.698;2023-01-26T10:33:31;12.50;99.90
16863;DHT22;52193;48.216;-1.698;2023-01-26T10:35:59;12.50;99.90
16863;DHT22;52193;48.216;-1.698;2023-01-26T10:38:41;12.50;99.90
16863;DHT22;52193;48.216;-1.698;2023-01-26T10:41:24;12.50;99.90
16863;DHT22;52193;48.216;-1.698;2023-01-26T10:43:54;12.50;99.90
16863;DHT22;52193;48.216;-1.698;2023-01-26T10:46:32;12.50;99.90
16863;DHT22;52193;48.216;-1.698;2023-01-26T10:49:01;12.50;99.90
16863;DHT22;52193;48.216;-1.698;2023-01-26T10:51:30;12.50;99.90
16863;DHT22;52193;48.216;-1.698;2023-01-26T10:54:23;12.50;99.90
16863;DHT22;52193;48.216;-1.698;2023-01-26T10:56:53;12.50;99.90
16863;DHT22;52193;48.216;-1.698;2023-01-26T10:59:32;12.40;99.90
16863;DHT22;52193;48.216;-1.698;2023-01-26T11:02:14;12.40;99.90
16863;DHT22;52193;48.216;-1.698;2023-01-26T11:05:15;12.50;99.90
16863;DHT22;52193;48.216;-1.698;2023-01-26T11:07:45;12.60;99.90
16863;DHT22;52193;48.216;-1.698;2023-01-26T11:10:19;12.60;99.90
16863;DHT22;52193;48.216;-1.698;2023-01-26T11:12:46;12.60;99.90
16863;DHT22;52193;48.216;-1.698;2023-01-26T11:15:16;12.60;99.90
16863;DHT22;52193;48.216;-1.698;2023-01-26T11:17:50;12.60;99.90
16863;DHT22;52193;48.216;-1.698;2023-01-26T11:20:40;12.60;99.90
16863;DHT22;52193;48.216;-1.698;2023-01-26T11:23:15;12.70;99.90
16863;DHT22;52193;48.216;-1.698;2023-01-26T11:26:06;12.70;99.90
16863;DHT22;52193;48.216;-1.698;2023-01-26T11:28:46;12.80;99.90
16863;DHT22;52193;48.216;-1.698;2023-01-26T11:31:26;12.80;99.90
16863;DHT22;52193;48.216;-1.698;2023-01-26T11:34:11;12.90;99.90
16863;DHT22;52193;48.216;-1.698;2023-01-26T11:36:47;13.00;99.90
16863;DHT22;52193;48.216;-1.698;2023-01-26T11:39:21;13.00;99.90
16863;DHT22;52193;48.216;-1.698;2023-01-26T11:42:03;13.10;99.90
16863;DHT22;52193;48.216;-1.698;2023-01-26T11:44:47;13.10;99.90
16863;DHT22;52193;48.216;-1.698;2023-01-26T11:47:28;13.20;99.90
16863;DHT22;52193;48.216;-1.698;2023-01-26T11:50:23;13.20;99.90
16863;DHT22;52193;48.216;-1.698;2023-01-26T11:55:51;13.40;99.90
16863;DHT22;52193;48.216;-1.698;2023-01-26T11:58:29;13.40;99.90
16863;DHT22;52193;48.216;-1.698;2023-01-26T12:00:58;13.50;99.90
16863;DHT22;52193;48.216;-1.698;2023-01-26T12:03:29;13.50;99.90
16863;DHT22;52193;48.216;-1.698;2023-01-26T12:06:05;13.60;99.90
16863;DHT22;52193;48.216;-1.698;2023-01-26T12:08:36;13.50;99.90
16863;DHT22;52193;48.216;-1.698;2023-01-26T12:11:08;13.50;99.90
16863;DHT22;52193;48.216;-1.698;2023-01-26T12:14:15;13.40;99.90
16863;DHT22;52193;48.216;-1.698;2023-01-26T12:17:14;13.50;99.90
16863;DHT22;52193;48.216;-1.698;2023-01-26T12:19:47;13.50;99.90
16863;DHT22;52193;48.216;-1.698;2023-01-26T12:22:23;13.50;99.90
16863;DHT22;52193;48.216;-1.698;2023-01-26T12:24:53;13.50;99.90
16863;DHT22;52193;48.216;-1.698;2023-01-26T12:27:25;13.40;99.90
16863;DHT22;52193;48.216;-1.698;2023-01-26T12:29:56;13.50;99.90
16863;DHT22;52193;48.216;-1.698;2023-01-26T12:32:26;13.40;99.90
16863;DHT22;52193;48.216;-1.698;2023-01-26T12:34:53;13.50;99.90
16863;DHT22;52193;48.216;-1.698;2023-01-26T12:37:36;13.50;99.90
16863;DHT22;52193;48.216;-1.698;2023-01-26T12:40:16;13.40;99.90
16863;DHT22;52193;48.216;-1.698;2023-01-26T12:42:49;13.40;99.90
16863;DHT22;52193;48.216;-1.698;2023-01-26T12:45:24;13.50;99.90
16863;DHT22;52193;48.216;-1.698;2023-01-26T12:47:54;13.40;99.90
16863;DHT22;52193;48.216;-1.698;2023-01-26T12:50:26;13.40;99.90
16863;DHT22;52193;48.216;-1.698;2023-01-26T12:53:00;13.40;99.90
16863;DHT22;52193;48.216;-1.698;2023-01-26T12:55:34;13.40;99.90
16863;DHT22;52193;48.216;-1.698;2023-01-26T12:58:07;13.50;99.90
16863;DHT22;52193;48.216;-1.698;2023-01-26T13:00:37;13.40;99.90
16863;DHT22;52193;48.216;-1.698;2023-01-26T13:03:12;13.40;99.90
16863;DHT22;52193;48.216;-1.698;2023-01-26T13:05:55;13.40;99.90
16863;DHT22;52193;48.216;-1.698;2023-01-26T13:08:51;13.30;99.90
16863;DHT22;52193;48.216;-1.698;2023-01-26T13:11:43;13.30;99.90
16863;DHT22;52193;48.216;-1.698;2023-01-26T13:14:34;13.30;99.90
16863;DHT22;52193;48.216;-1.698;2023-01-26T13:17:40;13.40;99.90
16863;DHT22;52193;48.216;-1.698;2023-01-26T13:20:21;13.40;99.90
16863;DHT22;52193;48.216;-1.698;2023-01-26T13:22:49;13.30;99.90
16863;DHT22;52193;48.216;-1.698;2023-01-26T13:25:24;13.30;99.90
16863;DHT22;52193;48.216;-1.698;2023-01-26T13:27:55;13.20;99.90
16863;DHT22;52193;48.216;-1.698;2023-01-26T13:30:42;13.30;99.90
16863;DHT22;52193;48.216;-1.698;2023-01-26T13:33:20;13.20;99.90
16863;DHT22;52193;48.216;-1.698;2023-01-26T13:35:49;13.20;99.90
16863;DHT22;52193;48.216;-1.698;2023-01-26T13:38:21;13.10;99.90
16863;DHT22;52193;48.216;-1.698;2023-01-26T13:40:52;13.10;99.90
16863;DHT22;52193;48.216;-1.698;2023-01-26T13:43:28;13.10;99.90
16863;DHT22;52193;48.216;-1.698;2023-01-26T13:46:08;13.10;99.90
16863;DHT22;52193;48.216;-1.698;2023-01-26T13:48:42;13.20;99.90
16863;DHT22;52193;48.216;-1.698;2023-01-26T13:51:14;13.30;99.90
16863;DHT22;52193;48.216;-1.698;2023-01-26T13:53:45;13.30;99.90
16863;DHT22;52193;48.216;-1.698;2023-01-26T13:56:26;13.40;99.90
16863;DHT22;52193;48.216;-1.698;2023-01-26T13:59:05;13.40;99.90
16863;DHT22;52193;48.216;-1.698;2023-01-26T14:01:33;13.50;99.90
16863;DHT22;52193;48.216;-1.698;2023-01-26T14:04:10;13.50;99.90
16863;DHT22;52193;48.216;-1.698;2023-01-26T14:06:38;13.50;99.90
16863;DHT22;52193;48.216;-1.698;2023-01-26T14:09:10;13.50;99.90
16863;DHT22;52193;48.216;-1.698;2023-01-26T14:11:41;13.40;99.90
16863;DHT22;52193;48.216;-1.698;2023-01-26T14:14:19;13.40;99.90
16863;DHT22;52193;48.216;-1.698;2023-01-26T14:16:48;13.40;99.90
16863;DHT22;52193;48.216;-1.698;2023-01-26T14:19:17;13.30;99.90
16863;DHT22;52193;48.216;-1.698;2023-01-26T14:21:46;13.30;99.90
16863;DHT22;52193;48.216;-1.698;2023-01-26T14:24:14;13.30;99.90
16863;DHT22;52193;48.216;-1.698;2023-01-26T14:26:42;13.20;99.90
16863;DHT22;52193;48.216;-1.698;2023-01-26T14:29:11;13.20;99.90
16863;DHT22;52193;48.216;-1.698;2023-01-26T14:31:39;13.20;99.90
16863;DHT22;52193;48.216;-1.698;2023-01-26T14:34:09;13.20;99.90
16863;DHT22;52193;48.216;-1.698;2023-01-26T14:36:36;13.10;99.90
16863;DHT22;52193;48.216;-1.698;2023-01-26T14:39:15;13.10;99.90
16863;DHT22;52193;48.216;-1.698;2023-01-26T14:41:44;13.10;99.90
16863;DHT22;52193;48.216;-1.698;2023-01-26T14:44:15;13.10;99.90
16863;DHT22;52193;48.216;-1.698;2023-01-26T14:46:50;13.10;99.90
16863;DHT22;52193;48.216;-1.698;2023-01-26T14:49:23;13.10;99.90
16863;DHT22;52193;48.216;-1.698;2023-01-26T14:51:56;13.10;99.90
16863;DHT22;52193;48.216;-1.698;2023-01-26T14:54:27;13.10;99.90
16863;DHT22;52193;48.216;-1.698;2023-01-26T14:56:57;13.10;99.90
16863;DHT22;52193;48.216;-1.698;2023-01-26T14:59:32;13.10;99.90
16863;DHT22;52193;48.216;-1.698;2023-01-26T15:02:12;13.00;99.90
16863;DHT22;52193;48.216;-1.698;2023-01-26T15:04:44;13.00;99.90
16863;DHT22;52193;48.216;-1.698;2023-01-26T15:07:29;13.00;99.90
16863;DHT22;52193;48.216;-1.698;2023-01-26T15:09:57;13.10;99.90
16863;DHT22;52193;48.216;-1.698;2023-01-26T15:12:26;13.10;99.90
16863;DHT22;52193;48.216;-1.698;2023-01-26T15:14:55;13.10;99.90
16863;DHT22;52193;48.216;-1.698;2023-01-26T15:17:27;13.10;99.90
16863;DHT22;52193;48.216;-1.698;2023-01-26T15:19:55;13.10;99.90
16863;DHT22;52193;48.216;-1.698;2023-01-26T15:22:23;13.00;99.90
16863;DHT22;52193;48.216;-1.698;2023-01-26T15:25:02;13.00;99.90
16863;DHT22;52193;48.216;-1.698;2023-01-26T15:27:33;13.10;99.90
16863;DHT22;52193;48.216;-1.698;2023-01-26T15:30:01;13.00;99.90
16863;DHT22;52193;48.216;-1.698;2023-01-26T15:32:31;13.00;99.90
16863;DHT22;52193;48.216;-1.698;2023-01-26T15:35:06;13.00;99.90
16863;DHT22;52193;48.216;-1.698;2023-01-26T15:37:33;13.10;99.90
16863;DHT22;52193;48.216;-1.698;2023-01-26T15:40:00;13.00;99.90
16863;DHT22;52193;48.216;-1.698;2023-01-26T15:42:28;13.00;99.90
16863;DHT22;52193;48.216;-1.698;2023-01-26T15:44:57;13.00;99.90
16863;DHT22;52193;48.216;-1.698;2023-01-26T15:47:25;13.00;99.90